sensor_id;sensor_type;location;lat;lon;timestamp;P1;durP1;ratioP1;P2;durP2;ratioP2
60730;SDS011;46580;52.114;11.674;2023-07-29T00:00:49;3.87;;;2.80;;
60730;SDS011;46580;52.114;11.674;2023-07-29T00:03:14;3.20;;;2.90;;
60730;SDS011;46580;52.114;11.674;2023-07-29T00:05:40;4.10;;;2.67;;
60730;SDS011;46580;52.114;11.674;2023-07-29T00:08:06;3.13;;;2.63;;
60730;SDS011;46580;52.114;11.674;2023-07-29T00:10:31;5.00;;;3.03;;
60730;SDS011;46580;52.114;11.674;2023-07-29T00:12:58;3.13;;;2.83;;
60730;SDS011;46580;52.114;11.674;2023-07-29T00:15:23;3.37;;;2.90;;
60730;SDS011;46580;52.114;11.674;2023-07-29T00:17:49;4.43;;;3.13;;
60730;SDS011;46580;52.114;11.674;2023-07-29T00:20:14;3.20;;;2.90;;
60730;SDS011;46580;52.114;11.674;2023-07-29T00:22:40;3.60;;;3.13;;
60730;SDS011;46580;52.114;11.674;2023-07-29T00:25:05;5.47;;;3.40;;
60730;SDS011;46580;52.114;11.674;2023-07-29T00:27:31;2.40;;;2.20;;
60730;SDS011;46580;52.114;11.674;2023-07-29T00:29:56;3.13;;;2.73;;
60730;SDS011;46580;52.114;11.674;2023-07-29T00:32:22;3.13;;;2.77;;
60730;SDS011;46580;52.114;11.674;2023-07-29T00:34:47;4.23;;;3.10;;
60730;SDS011;46580;52.114;11.674;2023-07-29T00:37:12;5.83;;;3.03;;
60730;SDS011;46580;52.114;11.674;2023-07-29T00:39:38;3.63;;;3.20;;
60730;SDS011;46580;52.114;11.674;2023-07-29T00:42:03;4.37;;;3.10;;
60730;SDS011;46580;52.114;11.674;2023-07-29T00:44:29;4.27;;;2.70;;
60730;SDS011;46580;52.114;11.674;2023-07-29T00:46:56;3.77;;;3.10;;
60730;SDS011;46580;52.114;11.674;2023-07-29T00:49:22;4.77;;;3.10;;
60730;SDS011;46580;52.114;11.674;2023-07-29T00:51:48;3.50;;;3.20;;
60730;SDS011;46580;52.114;11.674;2023-07-29T00:54:14;5.13;;;3.10;;
60730;SDS011;46580;52.114;11.674;2023-07-29T00:56:40;5.37;;;3.30;;
60730;SDS011;46580;52.114;11.674;2023-07-29T00:59:05;3.50;;;2.87;;
60730;SDS011;46580;52.114;11.674;2023-07-29T01:01:31;3.00;;;2.70;;
60730;SDS011;46580;52.114;11.674;2023-07-29T01:03:57;4.00;;;3.07;;
60730;SDS011;46580;52.114;11.674;2023-07-29T01:06:29;4.83;;;4.03;;
60730;SDS011;46580;52.114;11.674;2023-07-29T01:09:28;4.27;;;2.73;;
60730;SDS011;46580;52.114;11.674;2023-07-29T01:12:06;4.40;;;3.20;;
60730;SDS011;46580;52.114;11.674;2023-07-29T01:17:21;3.40;;;3.10;;
60730;SDS011;46580;52.114;11.674;2023-07-29T01:22:28;3.37;;;3.07;;
60730;SDS011;46580;52.114;11.674;2023-07-29T01:24:56;3.50;;;3.20;;
60730;SDS011;46580;52.114;11.674;2023-07-29T01:27:21;4.90;;;3.30;;
60730;SDS011;46580;52.114;11.674;2023-07-29T01:29:47;4.33;;;3.30;;
60730;SDS011;46580;52.114;11.674;2023-07-29T01:32:25;3.60;;;3.30;;
60730;SDS011;46580;52.114;11.674;2023-07-29T01:34:55;3.53;;;3.23;;
60730;SDS011;46580;52.114;11.674;2023-07-29T01:37:27;4.73;;;3.77;;
60730;SDS011;46580;52.114;11.674;2023-07-29T01:39:57;4.17;;;3.57;;
60730;SDS011;46580;52.114;11.674;2023-07-29T01:42:25;4.43;;;3.83;;
60730;SDS011;46580;52.114;11.674;2023-07-29T01:44:51;5.23;;;4.10;;
60730;SDS011;46580;52.114;11.674;2023-07-29T01:47:17;4.00;;;3.50;;
60730;SDS011;46580;52.114;11.674;2023-07-29T01:49:42;4.07;;;3.37;;
60730;SDS011;46580;52.114;11.674;2023-07-29T01:52:07;5.10;;;3.13;;
60730;SDS011;46580;52.114;11.674;2023-07-29T01:54:33;3.87;;;3.10;;
60730;SDS011;46580;52.114;11.674;2023-07-29T01:56:58;5.80;;;3.40;;
60730;SDS011;46580;52.114;11.674;2023-07-29T01:59:23;5.20;;;3.63;;
60730;SDS011;46580;52.114;11.674;2023-07-29T02:01:49;3.83;;;3.47;;
60730;SDS011;46580;52.114;11.674;2023-07-29T02:04:14;3.80;;;3.37;;
60730;SDS011;46580;52.114;11.674;2023-07-29T02:06:40;4.47;;;3.47;;
60730;SDS011;46580;52.114;11.674;2023-07-29T02:09:05;4.00;;;3.60;;
60730;SDS011;46580;52.114;11.674;2023-07-29T02:11:31;4.90;;;3.87;;
60730;SDS011;46580;52.114;11.674;2023-07-29T02:13:56;3.80;;;3.33;;
60730;SDS011;46580;52.114;11.674;2023-07-29T02:16:22;4.27;;;3.27;;
60730;SDS011;46580;52.114;11.674;2023-07-29T02:18:47;4.67;;;3.70;;
60730;SDS011;46580;52.114;11.674;2023-07-29T02:21:14;5.03;;;3.80;;
60730;SDS011;46580;52.114;11.674;2023-07-29T02:23:40;6.70;;;4.17;;
60730;SDS011;46580;52.114;11.674;2023-07-29T02:26:05;7.77;;;3.83;;
60730;SDS011;46580;52.114;11.674;2023-07-29T02:28:31;4.07;;;3.67;;
60730;SDS011;46580;52.114;11.674;2023-07-29T02:31:09;4.50;;;3.57;;
60730;SDS011;46580;52.114;11.674;2023-07-29T02:33:48;3.93;;;3.40;;
60730;SDS011;46580;52.114;11.674;2023-07-29T02:36:14;3.63;;;2.97;;
60730;SDS011;46580;52.114;11.674;2023-07-29T02:38:40;4.43;;;3.23;;
60730;SDS011;46580;52.114;11.674;2023-07-29T02:41:07;4.03;;;3.40;;
60730;SDS011;46580;52.114;11.674;2023-07-29T02:43:34;3.67;;;3.00;;
60730;SDS011;46580;52.114;11.674;2023-07-29T02:46:00;5.03;;;3.17;;
60730;SDS011;46580;52.114;11.674;2023-07-29T02:48:25;4.30;;;3.47;;
60730;SDS011;46580;52.114;11.674;2023-07-29T02:50:51;7.33;;;3.70;;
60730;SDS011;46580;52.114;11.674;2023-07-29T02:53:16;3.97;;;3.50;;
60730;SDS011;46580;52.114;11.674;2023-07-29T02:55:42;6.13;;;3.33;;
60730;SDS011;46580;52.114;11.674;2023-07-29T02:58:07;5.57;;;3.80;;
60730;SDS011;46580;52.114;11.674;2023-07-29T03:00:33;5.20;;;3.13;;
60730;SDS011;46580;52.114;11.674;2023-07-29T03:02:59;3.90;;;3.50;;
60730;SDS011;46580;52.114;11.674;2023-07-29T03:05:26;3.97;;;3.50;;
60730;SDS011;46580;52.114;11.674;2023-07-29T03:07:52;3.67;;;3.37;;
60730;SDS011;46580;52.114;11.674;2023-07-29T03:10:18;3.43;;;2.93;;
60730;SDS011;46580;52.114;11.674;2023-07-29T03:12:43;3.97;;;3.13;;
60730;SDS011;46580;52.114;11.674;2023-07-29T03:15:08;3.83;;;3.00;;
60730;SDS011;46580;52.114;11.674;2023-07-29T03:17:34;3.50;;;3.20;;
60730;SDS011;46580;52.114;11.674;2023-07-29T03:19:59;3.80;;;3.30;;
60730;SDS011;46580;52.114;11.674;2023-07-29T03:22:25;4.80;;;3.30;;
60730;SDS011;46580;52.114;11.674;2023-07-29T03:24:50;3.90;;;2.80;;
60730;SDS011;46580;52.114;11.674;2023-07-29T03:27:15;5.17;;;3.20;;
60730;SDS011;46580;52.114;11.674;2023-07-29T03:29:41;3.73;;;3.10;;
60730;SDS011;46580;52.114;11.674;2023-07-29T03:32:07;3.90;;;3.50;;
60730;SDS011;46580;52.114;11.674;2023-07-29T03:34:32;3.73;;;3.13;;
60730;SDS011;46580;52.114;11.674;2023-07-29T03:36:58;4.17;;;3.77;;
60730;SDS011;46580;52.114;11.674;2023-07-29T03:39:25;5.30;;;3.17;;
60730;SDS011;46580;52.114;11.674;2023-07-29T03:41:51;4.23;;;3.40;;
60730;SDS011;46580;52.114;11.674;2023-07-29T03:44:16;5.37;;;3.27;;
60730;SDS011;46580;52.114;11.674;2023-07-29T03:46:43;3.70;;;3.10;;
60730;SDS011;46580;52.114;11.674;2023-07-29T03:49:08;3.90;;;3.20;;
60730;SDS011;46580;52.114;11.674;2023-07-29T03:51:34;5.20;;;3.40;;
60730;SDS011;46580;52.114;11.674;2023-07-29T03:53:59;3.77;;;3.37;;
60730;SDS011;46580;52.114;11.674;2023-07-29T03:56:25;3.77;;;3.47;;
60730;SDS011;46580;52.114;11.674;2023-07-29T03:58:50;5.40;;;3.27;;
60730;SDS011;46580;52.114;11.674;2023-07-29T04:01:15;7.73;;;3.70;;
60730;SDS011;46580;52.114;11.674;2023-07-29T04:03:41;6.77;;;3.90;;
60730;SDS011;46580;52.114;11.674;2023-07-29T04:06:06;3.40;;;3.10;;
60730;SDS011;46580;52.114;11.674;2023-07-29T04:08:32;3.07;;;2.77;;
60730;SDS011;46580;52.114;11.674;2023-07-29T04:10:57;4.40;;;2.90;;
60730;SDS011;46580;52.114;11.674;2023-07-29T04:13:23;5.77;;;3.10;;
60730;SDS011;46580;52.114;11.674;2023-07-29T04:15:48;3.97;;;2.93;;
60730;SDS011;46580;52.114;11.674;2023-07-29T04:18:14;3.10;;;2.77;;
60730;SDS011;46580;52.114;11.674;2023-07-29T04:20:39;2.63;;;2.43;;
60730;SDS011;46580;52.114;11.674;2023-07-29T04:23:04;4.17;;;2.80;;
60730;SDS011;46580;52.114;11.674;2023-07-29T04:25:30;4.50;;;3.20;;
60730;SDS011;46580;52.114;11.674;2023-07-29T04:27:55;4.13;;;2.63;;
60730;SDS011;46580;52.114;11.674;2023-07-29T04:30:22;3.23;;;2.83;;
60730;SDS011;46580;52.114;11.674;2023-07-29T04:32:48;3.43;;;2.93;;
60730;SDS011;46580;52.114;11.674;2023-07-29T04:35:13;2.90;;;2.47;;
60730;SDS011;46580;52.114;11.674;2023-07-29T04:37:39;3.97;;;2.97;;
60730;SDS011;46580;52.114;11.674;2023-07-29T04:40:05;2.60;;;2.40;;
60730;SDS011;46580;52.114;11.674;2023-07-29T04:42:31;4.00;;;2.70;;
60730;SDS011;46580;52.114;11.674;2023-07-29T04:44:56;2.43;;;2.23;;
60730;SDS011;46580;52.114;11.674;2023-07-29T04:47:22;2.93;;;2.47;;
60730;SDS011;46580;52.114;11.674;2023-07-29T04:49:48;2.87;;;2.27;;
60730;SDS011;46580;52.114;11.674;2023-07-29T04:52:13;6.33;;;2.93;;
60730;SDS011;46580;52.114;11.674;2023-07-29T04:54:39;3.00;;;2.10;;
60730;SDS011;46580;52.114;11.674;2023-07-29T04:57:08;3.07;;;2.50;;
60730;SDS011;46580;52.114;11.674;2023-07-29T04:59:34;3.97;;;2.17;;
60730;SDS011;46580;52.114;11.674;2023-07-29T05:01:59;3.83;;;2.40;;
60730;SDS011;46580;52.114;11.674;2023-07-29T05:04:24;2.93;;;2.40;;
60730;SDS011;46580;52.114;11.674;2023-07-29T05:06:50;2.80;;;2.27;;
60730;SDS011;46580;52.114;11.674;2023-07-29T05:09:16;2.07;;;1.87;;
60730;SDS011;46580;52.114;11.674;2023-07-29T05:11:43;2.47;;;2.00;;
60730;SDS011;46580;52.114;11.674;2023-07-29T05:14:10;2.43;;;2.07;;
60730;SDS011;46580;52.114;11.674;2023-07-29T05:16:36;3.33;;;2.30;;
60730;SDS011;46580;52.114;11.674;2023-07-29T05:19:02;2.60;;;2.30;;
60730;SDS011;46580;52.114;11.674;2023-07-29T05:21:27;3.40;;;1.80;;
60730;SDS011;46580;52.114;11.674;2023-07-29T05:23:52;2.20;;;2.00;;
60730;SDS011;46580;52.114;11.674;2023-07-29T05:26:18;3.60;;;1.80;;
60730;SDS011;46580;52.114;11.674;2023-07-29T05:28:43;3.47;;;1.93;;
60730;SDS011;46580;52.114;11.674;2023-07-29T05:31:09;2.57;;;1.93;;
60730;SDS011;46580;52.114;11.674;2023-07-29T05:33:34;2.27;;;1.80;;
60730;SDS011;46580;52.114;11.674;2023-07-29T05:36:01;3.90;;;1.50;;
60730;SDS011;46580;52.114;11.674;2023-07-29T05:38:26;1.67;;;1.53;;
60730;SDS011;46580;52.114;11.674;2023-07-29T05:40:52;2.27;;;1.57;;
60730;SDS011;46580;52.114;11.674;2023-07-29T05:43:17;2.70;;;1.43;;
60730;SDS011;46580;52.114;11.674;2023-07-29T05:45:42;2.23;;;1.60;;
60730;SDS011;46580;52.114;11.674;2023-07-29T05:48:08;1.80;;;1.50;;
60730;SDS011;46580;52.114;11.674;2023-07-29T05:50:33;2.57;;;1.93;;
60730;SDS011;46580;52.114;11.674;2023-07-29T05:52:58;2.00;;;1.70;;
60730;SDS011;46580;52.114;11.674;2023-07-29T05:55:24;3.00;;;1.70;;
60730;SDS011;46580;52.114;11.674;2023-07-29T05:57:49;3.23;;;1.70;;
60730;SDS011;46580;52.114;11.674;2023-07-29T06:00:15;2.17;;;1.50;;
60730;SDS011;46580;52.114;11.674;2023-07-29T06:02:40;3.43;;;1.93;;
60730;SDS011;46580;52.114;11.674;2023-07-29T06:05:06;2.27;;;1.83;;
60730;SDS011;46580;52.114;11.674;2023-07-29T06:07:32;2.10;;;1.77;;
60730;SDS011;46580;52.114;11.674;2023-07-29T06:09:58;2.20;;;1.57;;
60730;SDS011;46580;52.114;11.674;2023-07-29T06:12:24;2.67;;;1.70;;
60730;SDS011;46580;52.114;11.674;2023-07-29T06:14:49;2.53;;;1.60;;
60730;SDS011;46580;52.114;11.674;2023-07-29T06:17:15;2.30;;;1.47;;
60730;SDS011;46580;52.114;11.674;2023-07-29T06:19:40;2.27;;;1.80;;
60730;SDS011;46580;52.114;11.674;2023-07-29T06:22:05;1.87;;;1.53;;
60730;SDS011;46580;52.114;11.674;2023-07-29T06:24:31;2.70;;;1.70;;
60730;SDS011;46580;52.114;11.674;2023-07-29T06:26:57;2.87;;;1.30;;
60730;SDS011;46580;52.114;11.674;2023-07-29T06:29:23;2.13;;;1.50;;
60730;SDS011;46580;52.114;11.674;2023-07-29T06:31:48;1.97;;;1.40;;
60730;SDS011;46580;52.114;11.674;2023-07-29T06:34:13;1.67;;;1.57;;
60730;SDS011;46580;52.114;11.674;2023-07-29T06:36:39;1.87;;;1.50;;
60730;SDS011;46580;52.114;11.674;2023-07-29T06:39:04;1.63;;;1.43;;
60730;SDS011;46580;52.114;11.674;2023-07-29T06:41:30;3.87;;;1.30;;
60730;SDS011;46580;52.114;11.674;2023-07-29T06:43:55;1.47;;;1.30;;
60730;SDS011;46580;52.114;11.674;2023-07-29T06:46:21;2.03;;;1.80;;
60730;SDS011;46580;52.114;11.674;2023-07-29T06:48:46;1.17;;;1.07;;
60730;SDS011;46580;52.114;11.674;2023-07-29T06:51:11;3.30;;;1.30;;
60730;SDS011;46580;52.114;11.674;2023-07-29T06:53:37;1.63;;;1.17;;
60730;SDS011;46580;52.114;11.674;2023-07-29T06:56:02;3.20;;;1.17;;
60730;SDS011;46580;52.114;11.674;2023-07-29T06:58:28;2.17;;;1.23;;
60730;SDS011;46580;52.114;11.674;2023-07-29T07:00:53;1.87;;;1.37;;
60730;SDS011;46580;52.114;11.674;2023-07-29T07:03:19;2.63;;;1.20;;
60730;SDS011;46580;52.114;11.674;2023-07-29T07:05:44;2.80;;;1.07;;
60730;SDS011;46580;52.114;11.674;2023-07-29T07:08:10;1.47;;;1.37;;
60730;SDS011;46580;52.114;11.674;2023-07-29T07:10:35;1.70;;;1.10;;
60730;SDS011;46580;52.114;11.674;2023-07-29T07:13:01;1.33;;;1.20;;
60730;SDS011;46580;52.114;11.674;2023-07-29T07:15:26;2.07;;;1.40;;
60730;SDS011;46580;52.114;11.674;2023-07-29T07:17:51;5.83;;;1.60;;
60730;SDS011;46580;52.114;11.674;2023-07-29T07:20:17;1.87;;;1.27;;
60730;SDS011;46580;52.114;11.674;2023-07-29T07:22:42;2.23;;;1.80;;
60730;SDS011;46580;52.114;11.674;2023-07-29T07:25:08;3.00;;;2.00;;
60730;SDS011;46580;52.114;11.674;2023-07-29T07:27:33;4.57;;;1.77;;
60730;SDS011;46580;52.114;11.674;2023-07-29T07:29:59;3.40;;;1.93;;
60730;SDS011;46580;52.114;11.674;2023-07-29T07:32:25;2.53;;;1.50;;
60730;SDS011;46580;52.114;11.674;2023-07-29T07:34:51;2.40;;;1.63;;
60730;SDS011;46580;52.114;11.674;2023-07-29T07:37:16;2.97;;;1.90;;
60730;SDS011;46580;52.114;11.674;2023-07-29T07:39:41;3.60;;;2.10;;
60730;SDS011;46580;52.114;11.674;2023-07-29T07:42:07;5.63;;;2.10;;
60730;SDS011;46580;52.114;11.674;2023-07-29T07:44:32;3.83;;;1.93;;
60730;SDS011;46580;52.114;11.674;2023-07-29T07:46:57;2.90;;;2.40;;
60730;SDS011;46580;52.114;11.674;2023-07-29T07:49:23;6.10;;;2.00;;
60730;SDS011;46580;52.114;11.674;2023-07-29T07:51:48;7.73;;;2.37;;
60730;SDS011;46580;52.114;11.674;2023-07-29T07:54:13;3.70;;;1.93;;
60730;SDS011;46580;52.114;11.674;2023-07-29T07:56:39;2.20;;;2.00;;
60730;SDS011;46580;52.114;11.674;2023-07-29T07:59:04;2.60;;;1.83;;
60730;SDS011;46580;52.114;11.674;2023-07-29T08:01:36;2.00;;;1.60;;
60730;SDS011;46580;52.114;11.674;2023-07-29T08:04:02;3.63;;;1.83;;
60730;SDS011;46580;52.114;11.674;2023-07-29T08:06:28;4.37;;;1.63;;
60730;SDS011;46580;52.114;11.674;2023-07-29T08:08:55;3.60;;;1.70;;
60730;SDS011;46580;52.114;11.674;2023-07-29T08:11:20;2.27;;;1.77;;
60730;SDS011;46580;52.114;11.674;2023-07-29T08:13:46;2.57;;;2.00;;
60730;SDS011;46580;52.114;11.674;2023-07-29T08:16:12;3.20;;;1.73;;
60730;SDS011;46580;52.114;11.674;2023-07-29T08:18:37;5.10;;;2.20;;
60730;SDS011;46580;52.114;11.674;2023-07-29T08:21:03;3.03;;;1.90;;
60730;SDS011;46580;52.114;11.674;2023-07-29T08:23:35;4.53;;;1.97;;
60730;SDS011;46580;52.114;11.674;2023-07-29T08:26:02;3.07;;;2.10;;
60730;SDS011;46580;52.114;11.674;2023-07-29T08:28:33;2.30;;;1.83;;
60730;SDS011;46580;52.114;11.674;2023-07-29T08:31:03;2.67;;;2.27;;
60730;SDS011;46580;52.114;11.674;2023-07-29T08:33:30;5.13;;;2.17;;
60730;SDS011;46580;52.114;11.674;2023-07-29T08:35:55;3.00;;;2.43;;
60730;SDS011;46580;52.114;11.674;2023-07-29T08:38:22;5.10;;;2.90;;
60730;SDS011;46580;52.114;11.674;2023-07-29T08:40:53;2.57;;;2.00;;
60730;SDS011;46580;52.114;11.674;2023-07-29T08:43:19;3.17;;;1.60;;
60730;SDS011;46580;52.114;11.674;2023-07-29T08:45:47;4.10;;;1.60;;
60730;SDS011;46580;52.114;11.674;2023-07-29T08:48:12;2.83;;;2.17;;
60730;SDS011;46580;52.114;11.674;2023-07-29T08:50:47;1.67;;;1.47;;
60730;SDS011;46580;52.114;11.674;2023-07-29T08:53:14;1.90;;;1.70;;
60730;SDS011;46580;52.114;11.674;2023-07-29T08:55:39;2.90;;;1.60;;
60730;SDS011;46580;52.114;11.674;2023-07-29T08:58:06;2.83;;;1.63;;
60730;SDS011;46580;52.114;11.674;2023-07-29T09:00:32;2.93;;;1.70;;
60730;SDS011;46580;52.114;11.674;2023-07-29T09:02:57;2.47;;;2.00;;
60730;SDS011;46580;52.114;11.674;2023-07-29T09:05:27;3.90;;;2.20;;
60730;SDS011;46580;52.114;11.674;2023-07-29T09:07:52;4.40;;;2.70;;
60730;SDS011;46580;52.114;11.674;2023-07-29T09:10:23;7.20;;;2.50;;
60730;SDS011;46580;52.114;11.674;2023-07-29T09:12:51;4.23;;;2.60;;
60730;SDS011;46580;52.114;11.674;2023-07-29T09:15:27;4.30;;;2.60;;
60730;SDS011;46580;52.114;11.674;2023-07-29T09:17:55;4.47;;;2.37;;
60730;SDS011;46580;52.114;11.674;2023-07-29T09:20:27;5.10;;;1.90;;
60730;SDS011;46580;52.114;11.674;2023-07-29T09:22:54;1.93;;;1.80;;
60730;SDS011;46580;52.114;11.674;2023-07-29T09:25:26;2.50;;;1.90;;
60730;SDS011;46580;52.114;11.674;2023-07-29T09:28:00;1.30;;;1.20;;
60730;SDS011;46580;52.114;11.674;2023-07-29T09:30:26;3.17;;;1.47;;
60730;SDS011;46580;52.114;11.674;2023-07-29T09:32:56;3.90;;;1.33;;
60730;SDS011;46580;52.114;11.674;2023-07-29T09:35:22;2.50;;;1.00;;
60730;SDS011;46580;52.114;11.674;2023-07-29T09:37:49;3.07;;;1.20;;
60730;SDS011;46580;52.114;11.674;2023-07-29T09:40:16;2.53;;;1.10;;
60730;SDS011;46580;52.114;11.674;2023-07-29T09:42:52;2.07;;;1.00;;
60730;SDS011;46580;52.114;11.674;2023-07-29T09:45:19;3.53;;;1.17;;
60730;SDS011;46580;52.114;11.674;2023-07-29T09:47:46;2.33;;;2.10;;
60730;SDS011;46580;52.114;11.674;2023-07-29T09:50:11;2.10;;;1.10;;
60730;SDS011;46580;52.114;11.674;2023-07-29T09:52:37;4.77;;;1.37;;
60730;SDS011;46580;52.114;11.674;2023-07-29T09:55:02;1.40;;;0.90;;
60730;SDS011;46580;52.114;11.674;2023-07-29T09:57:28;2.70;;;1.20;;
60730;SDS011;46580;52.114;11.674;2023-07-29T09:59:56;2.03;;;1.00;;
60730;SDS011;46580;52.114;11.674;2023-07-29T10:02:22;2.60;;;0.93;;
60730;SDS011;46580;52.114;11.674;2023-07-29T10:04:50;3.03;;;1.00;;
60730;SDS011;46580;52.114;11.674;2023-07-29T10:07:17;3.03;;;1.03;;
60730;SDS011;46580;52.114;11.674;2023-07-29T10:09:43;2.80;;;1.03;;
60730;SDS011;46580;52.114;11.674;2023-07-29T10:12:10;1.13;;;0.73;;
60730;SDS011;46580;52.114;11.674;2023-07-29T10:14:36;1.70;;;1.00;;
60730;SDS011;46580;52.114;11.674;2023-07-29T10:17:03;4.07;;;1.07;;
60730;SDS011;46580;52.114;11.674;2023-07-29T10:19:30;2.33;;;1.20;;
60730;SDS011;46580;52.114;11.674;2023-07-29T10:21:56;1.63;;;0.90;;
60730;SDS011;46580;52.114;11.674;2023-07-29T10:24:29;1.20;;;0.70;;
60730;SDS011;46580;52.114;11.674;2023-07-29T10:27:00;1.43;;;0.80;;
60730;SDS011;46580;52.114;11.674;2023-07-29T10:29:32;3.83;;;1.50;;
60730;SDS011;46580;52.114;11.674;2023-07-29T10:32:03;4.10;;;1.53;;
60730;SDS011;46580;52.114;11.674;2023-07-29T10:34:30;1.80;;;1.23;;
60730;SDS011;46580;52.114;11.674;2023-07-29T10:36:57;1.17;;;0.50;;
60730;SDS011;46580;52.114;11.674;2023-07-29T10:39:24;1.23;;;0.90;;
60730;SDS011;46580;52.114;11.674;2023-07-29T10:41:54;2.63;;;1.10;;
60730;SDS011;46580;52.114;11.674;2023-07-29T10:47:25;0.60;;;0.40;;
60730;SDS011;46580;52.114;11.674;2023-07-29T10:49:56;0.53;;;0.50;;
60730;SDS011;46580;52.114;11.674;2023-07-29T10:52:44;1.97;;;0.77;;
60730;SDS011;46580;52.114;11.674;2023-07-29T10:58:06;1.63;;;0.70;;
60730;SDS011;46580;52.114;11.674;2023-07-29T11:00:44;4.63;;;0.80;;
60730;SDS011;46580;52.114;11.674;2023-07-29T11:03:11;0.77;;;0.67;;
60730;SDS011;46580;52.114;11.674;2023-07-29T11:05:43;1.30;;;0.90;;
60730;SDS011;46580;52.114;11.674;2023-07-29T11:08:17;2.90;;;0.50;;
60730;SDS011;46580;52.114;11.674;2023-07-29T11:10:43;0.73;;;0.50;;
60730;SDS011;46580;52.114;11.674;2023-07-29T11:13:12;2.67;;;0.50;;
60730;SDS011;46580;52.114;11.674;2023-07-29T11:15:38;0.60;;;0.60;;
60730;SDS011;46580;52.114;11.674;2023-07-29T11:18:04;1.27;;;0.50;;
60730;SDS011;46580;52.114;11.674;2023-07-29T11:20:32;0.87;;;0.50;;
60730;SDS011;46580;52.114;11.674;2023-07-29T11:22:59;0.87;;;0.57;;
60730;SDS011;46580;52.114;11.674;2023-07-29T11:25:27;1.17;;;0.53;;
60730;SDS011;46580;52.114;11.674;2023-07-29T11:27:55;0.80;;;0.70;;
60730;SDS011;46580;52.114;11.674;2023-07-29T11:30:22;2.10;;;0.60;;
60730;SDS011;46580;52.114;11.674;2023-07-29T11:32:55;1.20;;;0.60;;
60730;SDS011;46580;52.114;11.674;2023-07-29T11:35:21;1.77;;;0.90;;
60730;SDS011;46580;52.114;11.674;2023-07-29T11:37:47;3.27;;;0.73;;
60730;SDS011;46580;52.114;11.674;2023-07-29T11:40:17;0.90;;;0.70;;
60730;SDS011;46580;52.114;11.674;2023-07-29T11:42:44;1.13;;;0.70;;
60730;SDS011;46580;52.114;11.674;2023-07-29T11:45:10;0.93;;;0.80;;
60730;SDS011;46580;52.114;11.674;2023-07-29T11:47:36;0.90;;;0.70;;
60730;SDS011;46580;52.114;11.674;2023-07-29T11:50:05;1.00;;;0.70;;
60730;SDS011;46580;52.114;11.674;2023-07-29T11:52:34;2.60;;;1.03;;
60730;SDS011;46580;52.114;11.674;2023-07-29T11:55:01;1.57;;;0.80;;
60730;SDS011;46580;52.114;11.674;2023-07-29T11:57:28;1.47;;;1.00;;
60730;SDS011;46580;52.114;11.674;2023-07-29T11:59:54;2.63;;;1.10;;
60730;SDS011;46580;52.114;11.674;2023-07-29T12:02:20;1.30;;;1.00;;
60730;SDS011;46580;52.114;11.674;2023-07-29T12:04:47;2.17;;;1.10;;
60730;SDS011;46580;52.114;11.674;2023-07-29T12:07:14;3.70;;;1.30;;
60730;SDS011;46580;52.114;11.674;2023-07-29T12:09:40;3.23;;;1.53;;
60730;SDS011;46580;52.114;11.674;2023-07-29T12:12:06;2.43;;;1.10;;
60730;SDS011;46580;52.114;11.674;2023-07-29T12:14:33;3.07;;;1.20;;
60730;SDS011;46580;52.114;11.674;2023-07-29T12:16:59;2.97;;;1.27;;
60730;SDS011;46580;52.114;11.674;2023-07-29T12:19:33;4.80;;;1.47;;
60730;SDS011;46580;52.114;11.674;2023-07-29T12:22:00;1.40;;;1.30;;
60730;SDS011;46580;52.114;11.674;2023-07-29T12:24:26;4.10;;;1.63;;
60730;SDS011;46580;52.114;11.674;2023-07-29T12:26:52;1.40;;;1.20;;
60730;SDS011;46580;52.114;11.674;2023-07-29T12:29:18;3.83;;;1.70;;
60730;SDS011;46580;52.114;11.674;2023-07-29T12:31:47;2.83;;;0.93;;
60730;SDS011;46580;52.114;11.674;2023-07-29T12:34:17;2.33;;;1.00;;
60730;SDS011;46580;52.114;11.674;2023-07-29T12:36:47;1.90;;;1.13;;
60730;SDS011;46580;52.114;11.674;2023-07-29T12:41:42;1.00;;;0.93;;
60730;SDS011;46580;52.114;11.674;2023-07-29T12:44:08;3.60;;;1.00;;
60730;SDS011;46580;52.114;11.674;2023-07-29T12:46:33;1.83;;;1.00;;
60730;SDS011;46580;52.114;11.674;2023-07-29T12:48:58;2.27;;;1.00;;
60730;SDS011;46580;52.114;11.674;2023-07-29T12:51:24;2.70;;;1.10;;
60730;SDS011;46580;52.114;11.674;2023-07-29T12:53:49;2.27;;;1.07;;
60730;SDS011;46580;52.114;11.674;2023-07-29T12:56:14;1.10;;;1.00;;
60730;SDS011;46580;52.114;11.674;2023-07-29T12:58:40;2.90;;;1.27;;
60730;SDS011;46580;52.114;11.674;2023-07-29T13:01:05;1.00;;;0.90;;
60730;SDS011;46580;52.114;11.674;2023-07-29T13:03:30;1.20;;;1.10;;
60730;SDS011;46580;52.114;11.674;2023-07-29T13:05:56;1.23;;;0.90;;
60730;SDS011;46580;52.114;11.674;2023-07-29T13:08:21;1.80;;;1.23;;
60730;SDS011;46580;52.114;11.674;2023-07-29T13:10:48;1.80;;;1.10;;
60730;SDS011;46580;52.114;11.674;2023-07-29T13:13:13;2.37;;;1.17;;
60730;SDS011;46580;52.114;11.674;2023-07-29T13:15:38;1.30;;;1.20;;
60730;SDS011;46580;52.114;11.674;2023-07-29T13:18:04;2.00;;;1.20;;
60730;SDS011;46580;52.114;11.674;2023-07-29T13:20:29;2.13;;;1.40;;
60730;SDS011;46580;52.114;11.674;2023-07-29T13:22:55;1.57;;;1.40;;
60730;SDS011;46580;52.114;11.674;2023-07-29T13:25:20;1.30;;;1.20;;
60730;SDS011;46580;52.114;11.674;2023-07-29T13:27:45;2.37;;;1.43;;
60730;SDS011;46580;52.114;11.674;2023-07-29T13:30:11;5.20;;;1.60;;
60730;SDS011;46580;52.114;11.674;2023-07-29T13:32:36;2.10;;;1.90;;
60730;SDS011;46580;52.114;11.674;2023-07-29T13:35:02;2.10;;;1.90;;
60730;SDS011;46580;52.114;11.674;2023-07-29T13:37:27;2.20;;;1.80;;
60730;SDS011;46580;52.114;11.674;2023-07-29T13:39:52;1.60;;;1.50;;
60730;SDS011;46580;52.114;11.674;2023-07-29T13:42:18;1.43;;;1.33;;
60730;SDS011;46580;52.114;11.674;2023-07-29T13:44:43;3.83;;;2.10;;
60730;SDS011;46580;52.114;11.674;2023-07-29T13:47:08;1.50;;;1.40;;
60730;SDS011;46580;52.114;11.674;2023-07-29T13:49:34;1.53;;;1.40;;
60730;SDS011;46580;52.114;11.674;2023-07-29T13:51:59;1.43;;;1.33;;
60730;SDS011;46580;52.114;11.674;2023-07-29T13:54:24;4.03;;;1.50;;
60730;SDS011;46580;52.114;11.674;2023-07-29T13:56:50;2.57;;;1.57;;
60730;SDS011;46580;52.114;11.674;2023-07-29T13:59:15;2.57;;;1.60;;
60730;SDS011;46580;52.114;11.674;2023-07-29T14:01:40;1.77;;;1.50;;
60730;SDS011;46580;52.114;11.674;2023-07-29T14:04:06;3.60;;;1.50;;
60730;SDS011;46580;52.114;11.674;2023-07-29T14:06:32;1.87;;;1.40;;
60730;SDS011;46580;52.114;11.674;2023-07-29T14:08:57;2.60;;;1.70;;
60730;SDS011;46580;52.114;11.674;2023-07-29T14:11:22;3.03;;;1.60;;
60730;SDS011;46580;52.114;11.674;2023-07-29T14:13:48;3.10;;;1.93;;
60730;SDS011;46580;52.114;11.674;2023-07-29T14:16:13;3.03;;;2.00;;
60730;SDS011;46580;52.114;11.674;2023-07-29T14:18:38;9.17;;;2.30;;
60730;SDS011;46580;52.114;11.674;2023-07-29T14:21:04;2.20;;;2.00;;
60730;SDS011;46580;52.114;11.674;2023-07-29T14:23:29;2.57;;;2.00;;
60730;SDS011;46580;52.114;11.674;2023-07-29T14:25:55;5.60;;;2.10;;
60730;SDS011;46580;52.114;11.674;2023-07-29T14:28:20;2.10;;;1.87;;
60730;SDS011;46580;52.114;11.674;2023-07-29T14:30:46;2.37;;;2.17;;
60730;SDS011;46580;52.114;11.674;2023-07-29T14:33:11;2.93;;;2.20;;
60730;SDS011;46580;52.114;11.674;2023-07-29T14:35:36;3.20;;;1.97;;
60730;SDS011;46580;52.114;11.674;2023-07-29T14:38:02;2.37;;;2.13;;
60730;SDS011;46580;52.114;11.674;2023-07-29T14:40:27;4.77;;;2.13;;
60730;SDS011;46580;52.114;11.674;2023-07-29T14:42:53;2.20;;;2.00;;